sensor_id;sensor_type;location;lat;lon;timestamp;P1;durP1;ratioP1;P2;durP2;ratioP2
13090;SDS011;6611;52.604;13.438;2023-07-13T00:01:30;3.13;;;2.20;;
13090;SDS011;6611;52.604;13.438;2023-07-13T00:06:32;2.37;;;2.17;;
13090;SDS011;6611;52.604;13.438;2023-07-13T00:11:35;2.93;;;2.37;;
13090;SDS011;6611;52.604;13.438;2023-07-13T00:16:38;3.13;;;2.20;;
13090;SDS011;6611;52.604;13.438;2023-07-13T00:21:41;4.17;;;2.37;;
13090;SDS011;6611;52.604;13.438;2023-07-13T00:26:43;3.43;;;2.47;;
13090;SDS011;6611;52.604;13.438;2023-07-13T00:31:47;7.30;;;3.10;;
13090;SDS011;6611;52.604;13.438;2023-07-13T00:36:48;2.90;;;2.20;;
13090;SDS011;6611;52.604;13.438;2023-07-13T00:41:50;4.40;;;2.60;;
13090;SDS011;6611;52.604;13.438;2023-07-13T00:46:53;3.50;;;2.67;;
13090;SDS011;6611;52.604;13.438;2023-07-13T00:51:56;2.73;;;2.27;;
13090;SDS011;6611;52.604;13.438;2023-07-13T00:57:02;4.07;;;2.63;;
13090;SDS011;6611;52.604;13.438;2023-07-13T01:02:09;3.87;;;2.90;;
13090;SDS011;6611;52.604;13.438;2023-07-13T01:07:11;3.50;;;2.63;;
13090;SDS011;6611;52.604;13.438;2023-07-13T01:12:14;3.23;;;2.20;;
13090;SDS011;6611;52.604;13.438;2023-07-13T01:17:16;3.93;;;2.60;;
13090;SDS011;6611;52.604;13.438;2023-07-13T01:22:20;4.07;;;2.60;;
13090;SDS011;6611;52.604;13.438;2023-07-13T01:27:25;3.70;;;2.60;;
13090;SDS011;6611;52.604;13.438;2023-07-13T01:32:28;5.20;;;2.83;;
13090;SDS011;6611;52.604;13.438;2023-07-13T01:37:32;3.90;;;2.80;;
13090;SDS011;6611;52.604;13.438;2023-07-13T01:42:36;3.93;;;3.17;;
13090;SDS011;6611;52.604;13.438;2023-07-13T01:47:38;4.17;;;2.73;;
13090;SDS011;6611;52.604;13.438;2023-07-13T01:52:41;3.93;;;2.80;;
13090;SDS011;6611;52.604;13.438;2023-07-13T01:57:43;4.50;;;2.57;;
13090;SDS011;6611;52.604;13.438;2023-07-13T02:02:45;4.60;;;3.03;;
13090;SDS011;6611;52.604;13.438;2023-07-13T02:07:48;3.90;;;2.87;;
13090;SDS011;6611;52.604;13.438;2023-07-13T02:12:50;4.03;;;2.90;;
13090;SDS011;6611;52.604;13.438;2023-07-13T02:17:52;3.53;;;2.97;;
13090;SDS011;6611;52.604;13.438;2023-07-13T02:22:55;4.67;;;2.90;;
13090;SDS011;6611;52.604;13.438;2023-07-13T02:27:57;3.67;;;3.27;;
13090;SDS011;6611;52.604;13.438;2023-07-13T02:32:58;4.10;;;2.67;;
13090;SDS011;6611;52.604;13.438;2023-07-13T02:38:01;3.87;;;2.80;;
13090;SDS011;6611;52.604;13.438;2023-07-13T02:43:03;5.23;;;3.50;;
13090;SDS011;6611;52.604;13.438;2023-07-13T02:48:05;3.40;;;3.03;;
13090;SDS011;6611;52.604;13.438;2023-07-13T02:53:08;5.10;;;3.00;;
13090;SDS011;6611;52.604;13.438;2023-07-13T02:58:09;5.33;;;3.70;;
13090;SDS011;6611;52.604;13.438;2023-07-13T03:03:11;4.00;;;2.90;;
13090;SDS011;6611;52.604;13.438;2023-07-13T03:08:14;3.30;;;3.00;;
13090;SDS011;6611;52.604;13.438;2023-07-13T03:13:16;4.73;;;3.03;;
13090;SDS011;6611;52.604;13.438;2023-07-13T03:18:17;3.80;;;3.40;;
13090;SDS011;6611;52.604;13.438;2023-07-13T03:23:20;4.03;;;3.17;;
13090;SDS011;6611;52.604;13.438;2023-07-13T03:28:22;5.40;;;3.30;;
13090;SDS011;6611;52.604;13.438;2023-07-13T03:33:24;4.63;;;3.10;;
13090;SDS011;6611;52.604;13.438;2023-07-13T03:38:27;4.00;;;3.30;;
13090;SDS011;6611;52.604;13.438;2023-07-13T03:43:28;4.77;;;3.47;;
13090;SDS011;6611;52.604;13.438;2023-07-13T03:48:30;6.00;;;3.40;;
13090;SDS011;6611;52.604;13.438;2023-07-13T03:53:33;6.20;;;3.00;;
13090;SDS011;6611;52.604;13.438;2023-07-13T03:58:36;4.77;;;2.83;;
13090;SDS011;6611;52.604;13.438;2023-07-13T04:03:39;3.53;;;3.00;;
13090;SDS011;6611;52.604;13.438;2023-07-13T04:08:42;3.63;;;2.67;;
13090;SDS011;6611;52.604;13.438;2023-07-13T04:13:44;2.87;;;2.50;;
13090;SDS011;6611;52.604;13.438;2023-07-13T04:18:46;4.90;;;2.90;;
13090;SDS011;6611;52.604;13.438;2023-07-13T04:23:50;3.73;;;2.63;;
13090;SDS011;6611;52.604;13.438;2023-07-13T04:28:52;3.17;;;2.87;;
13090;SDS011;6611;52.604;13.438;2023-07-13T04:33:54;4.37;;;2.80;;
13090;SDS011;6611;52.604;13.438;2023-07-13T04:38:56;3.83;;;3.03;;
13090;SDS011;6611;52.604;13.438;2023-07-13T04:43:58;6.03;;;2.70;;
13090;SDS011;6611;52.604;13.438;2023-07-13T04:49:00;3.40;;;2.83;;
13090;SDS011;6611;52.604;13.438;2023-07-13T04:54:05;2.90;;;2.57;;
13090;SDS011;6611;52.604;13.438;2023-07-13T04:59:08;3.83;;;2.47;;
13090;SDS011;6611;52.604;13.438;2023-07-13T05:04:09;2.40;;;2.20;;
13090;SDS011;6611;52.604;13.438;2023-07-13T05:09:12;3.20;;;2.73;;
13090;SDS011;6611;52.604;13.438;2023-07-13T05:14:14;3.83;;;2.63;;
13090;SDS011;6611;52.604;13.438;2023-07-13T05:19:16;2.40;;;2.20;;
13090;SDS011;6611;52.604;13.438;2023-07-13T05:24:19;3.47;;;2.17;;
13090;SDS011;6611;52.604;13.438;2023-07-13T05:29:21;4.07;;;2.27;;
13090;SDS011;6611;52.604;13.438;2023-07-13T05:34:23;2.63;;;2.00;;
13090;SDS011;6611;52.604;13.438;2023-07-13T05:39:26;3.80;;;2.40;;
13090;SDS011;6611;52.604;13.438;2023-07-13T05:44:28;2.77;;;2.23;;
13090;SDS011;6611;52.604;13.438;2023-07-13T05:49:29;3.67;;;2.50;;
13090;SDS011;6611;52.604;13.438;2023-07-13T05:54:32;2.90;;;2.00;;
13090;SDS011;6611;52.604;13.438;2023-07-13T05:59:35;2.57;;;1.83;;
13090;SDS011;6611;52.604;13.438;2023-07-13T06:04:37;3.20;;;2.00;;
13090;SDS011;6611;52.604;13.438;2023-07-13T06:09:40;3.33;;;1.73;;
13090;SDS011;6611;52.604;13.438;2023-07-13T06:14:41;2.33;;;1.90;;
13090;SDS011;6611;52.604;13.438;2023-07-13T06:19:43;1.73;;;1.60;;
13090;SDS011;6611;52.604;13.438;2023-07-13T06:24:46;3.43;;;1.60;;
13090;SDS011;6611;52.604;13.438;2023-07-13T06:29:48;2.20;;;1.60;;
13090;SDS011;6611;52.604;13.438;2023-07-13T06:34:49;2.43;;;1.50;;
13090;SDS011;6611;52.604;13.438;2023-07-13T06:39:53;2.00;;;1.37;;
13090;SDS011;6611;52.604;13.438;2023-07-13T06:44:54;4.17;;;1.50;;
13090;SDS011;6611;52.604;13.438;2023-07-13T06:49:57;2.60;;;1.50;;
13090;SDS011;6611;52.604;13.438;2023-07-13T06:55:00;3.13;;;1.90;;
13090;SDS011;6611;52.604;13.438;2023-07-13T07:00:02;3.63;;;1.60;;
13090;SDS011;6611;52.604;13.438;2023-07-13T07:05:04;2.47;;;1.60;;
13090;SDS011;6611;52.604;13.438;2023-07-13T07:10:08;1.33;;;1.20;;
13090;SDS011;6611;52.604;13.438;2023-07-13T07:15:10;1.10;;;1.00;;
13090;SDS011;6611;52.604;13.438;2023-07-13T07:20:12;2.03;;;1.00;;
13090;SDS011;6611;52.604;13.438;2023-07-13T07:25:15;1.60;;;1.30;;
13090;SDS011;6611;52.604;13.438;2023-07-13T07:30:17;1.47;;;1.10;;
13090;SDS011;6611;52.604;13.438;2023-07-13T07:35:19;1.50;;;1.10;;
13090;SDS011;6611;52.604;13.438;2023-07-13T07:40:22;2.30;;;1.15;;
13090;SDS011;6611;52.604;13.438;2023-07-13T07:45:23;2.95;;;1.00;;
13090;SDS011;6611;52.604;13.438;2023-07-13T07:50:25;2.35;;;1.00;;
13090;SDS011;6611;52.604;13.438;2023-07-13T07:55:28;1.83;;;1.00;;
13090;SDS011;6611;52.604;13.438;2023-07-13T08:00:30;1.17;;;1.00;;
13090;SDS011;6611;52.604;13.438;2023-07-13T08:05:34;2.13;;;1.00;;
13090;SDS011;6611;52.604;13.438;2023-07-13T08:10:38;2.03;;;1.05;;
13090;SDS011;6611;52.604;13.438;2023-07-13T08:15:39;0.70;;;0.70;;
13090;SDS011;6611;52.604;13.438;2023-07-13T08:20:41;1.60;;;0.90;;
13090;SDS011;6611;52.604;13.438;2023-07-13T08:25:44;2.78;;;1.05;;
13090;SDS011;6611;52.604;13.438;2023-07-13T08:30:52;1.33;;;1.10;;
13090;SDS011;6611;52.604;13.438;2023-07-13T08:35:53;3.00;;;1.17;;
13090;SDS011;6611;52.604;13.438;2023-07-13T08:40:56;1.63;;;1.13;;
13090;SDS011;6611;52.604;13.438;2023-07-13T08:45:59;2.30;;;1.00;;
13090;SDS011;6611;52.604;13.438;2023-07-13T08:51:09;1.77;;;1.15;;
13090;SDS011;6611;52.604;13.438;2023-07-13T08:56:21;1.07;;;0.90;;
13090;SDS011;6611;52.604;13.438;2023-07-13T09:01:28;3.50;;;1.23;;
13090;SDS011;6611;52.604;13.438;2023-07-13T09:06:37;2.13;;;0.97;;
13090;SDS011;6611;52.604;13.438;2023-07-13T09:11:49;1.20;;;0.90;;
13090;SDS011;6611;52.604;13.438;2023-07-13T09:16:55;1.50;;;1.05;;
13090;SDS011;6611;52.604;13.438;2023-07-13T09:21:57;1.88;;;1.00;;
13090;SDS011;6611;52.604;13.438;2023-07-13T09:27:01;2.38;;;0.80;;
13090;SDS011;6611;52.604;13.438;2023-07-13T09:32:10;3.30;;;1.20;;
13090;SDS011;6611;52.604;13.438;2023-07-13T09:37:15;1.95;;;1.00;;
13090;SDS011;6611;52.604;13.438;2023-07-13T09:42:19;2.05;;;1.05;;
13090;SDS011;6611;52.604;13.438;2023-07-13T09:47:24;1.73;;;1.10;;
13090;SDS011;6611;52.604;13.438;2023-07-13T09:52:27;1.30;;;0.95;;
13090;SDS011;6611;52.604;13.438;2023-07-13T09:57:42;2.63;;;1.27;;
13090;SDS011;6611;52.604;13.438;2023-07-13T10:02:50;3.33;;;1.35;;
13090;SDS011;6611;52.604;13.438;2023-07-13T10:08:00;3.10;;;1.30;;
13090;SDS011;6611;52.604;13.438;2023-07-13T10:13:03;2.17;;;1.30;;
13090;SDS011;6611;52.604;13.438;2023-07-13T10:18:07;2.53;;;1.55;;
13090;SDS011;6611;52.604;13.438;2023-07-13T10:23:11;2.45;;;1.35;;
13090;SDS011;6611;52.604;13.438;2023-07-13T10:28:25;6.57;;;1.55;;
13090;SDS011;6611;52.604;13.438;2023-07-13T10:33:30;3.10;;;1.83;;
13090;SDS011;6611;52.604;13.438;2023-07-13T10:38:32;8.40;;;2.17;;
13090;SDS011;6611;52.604;13.438;2023-07-13T10:43:37;3.10;;;1.70;;
13090;SDS011;6611;52.604;13.438;2023-07-13T10:48:43;5.00;;;1.90;;
13090;SDS011;6611;52.604;13.438;2023-07-13T10:53:48;3.03;;;1.75;;
13090;SDS011;6611;52.604;13.438;2023-07-13T10:59:27;2.97;;;1.50;;
13090;SDS011;6611;52.604;13.438;2023-07-13T11:04:39;3.80;;;1.80;;
13090;SDS011;6611;52.604;13.438;2023-07-13T11:09:43;2.35;;;1.50;;
13090;SDS011;6611;52.604;13.438;2023-07-13T11:15:02;2.25;;;1.50;;
13090;SDS011;6611;52.604;13.438;2023-07-13T11:20:19;3.40;;;1.52;;
13090;SDS011;6611;52.604;13.438;2023-07-13T11:25:25;2.33;;;1.50;;
13090;SDS011;6611;52.604;13.438;2023-07-13T11:30:36;3.63;;;1.70;;
13090;SDS011;6611;52.604;13.438;2023-07-13T11:35:42;1.90;;;1.70;;
13090;SDS011;6611;52.604;13.438;2023-07-13T11:40:53;1.55;;;1.45;;
13090;SDS011;6611;52.604;13.438;2023-07-13T11:45:57;2.58;;;1.63;;
13090;SDS011;6611;52.604;13.438;2023-07-13T11:50:59;2.65;;;1.80;;
13090;SDS011;6611;52.604;13.438;2023-07-13T11:56:05;2.42;;;1.77;;
13090;SDS011;6611;52.604;13.438;2023-07-13T12:01:15;2.60;;;1.70;;
13090;SDS011;6611;52.604;13.438;2023-07-13T12:06:22;2.28;;;1.52;;
13090;SDS011;6611;52.604;13.438;2023-07-13T12:11:28;1.73;;;1.45;;
13090;SDS011;6611;52.604;13.438;2023-07-13T12:16:32;1.70;;;1.42;;
13090;SDS011;6611;52.604;13.438;2023-07-13T12:21:36;2.97;;;1.40;;
13090;SDS011;6611;52.604;13.438;2023-07-13T12:26:39;2.38;;;1.77;;
13090;SDS011;6611;52.604;13.438;2023-07-13T12:31:43;1.33;;;1.23;;
13090;SDS011;6611;52.604;13.438;2023-07-13T12:36:47;2.22;;;1.48;;
13090;SDS011;6611;52.604;13.438;2023-07-13T12:41:51;4.30;;;1.38;;
13090;SDS011;6611;52.604;13.438;2023-07-13T12:46:56;2.30;;;1.23;;
13090;SDS011;6611;52.604;13.438;2023-07-13T12:52:00;3.08;;;1.60;;
13090;SDS011;6611;52.604;13.438;2023-07-13T12:57:03;3.08;;;1.58;;
13090;SDS011;6611;52.604;13.438;2023-07-13T13:02:19;3.30;;;1.60;;
13090;SDS011;6611;52.604;13.438;2023-07-13T13:07:27;2.75;;;1.50;;
13090;SDS011;6611;52.604;13.438;2023-07-13T13:12:28;2.20;;;1.70;;
13090;SDS011;6611;52.604;13.438;2023-07-13T13:17:33;3.60;;;1.42;;
13090;SDS011;6611;52.604;13.438;2023-07-13T13:22:35;2.55;;;1.40;;
13090;SDS011;6611;52.604;13.438;2023-07-13T13:27:37;2.25;;;1.30;;
13090;SDS011;6611;52.604;13.438;2023-07-13T13:32:41;2.72;;;1.42;;
13090;SDS011;6611;52.604;13.438;2023-07-13T13:37:46;3.55;;;1.55;;
13090;SDS011;6611;52.604;13.438;2023-07-13T13:42:50;2.97;;;1.50;;
13090;SDS011;6611;52.604;13.438;2023-07-13T13:47:55;1.55;;;1.00;;
13090;SDS011;6611;52.604;13.438;2023-07-13T13:52:56;3.55;;;1.40;;
13090;SDS011;6611;52.604;13.438;2023-07-13T13:57:58;2.28;;;1.50;;
13090;SDS011;6611;52.604;13.438;2023-07-13T14:03:01;2.60;;;1.60;;
13090;SDS011;6611;52.604;13.438;2023-07-13T14:08:03;1.80;;;1.30;;
13090;SDS011;6611;52.604;13.438;2023-07-13T14:13:07;2.22;;;1.13;;
13090;SDS011;6611;52.604;13.438;2023-07-13T14:18:20;4.68;;;1.40;;
13090;SDS011;6611;52.604;13.438;2023-07-13T14:23:21;1.92;;;1.30;;
13090;SDS011;6611;52.604;13.438;2023-07-13T14:28:23;2.35;;;1.17;;
13090;SDS011;6611;52.604;13.438;2023-07-13T14:33:28;1.25;;;0.82;;
13090;SDS011;6611;52.604;13.438;2023-07-13T14:38:30;1.85;;;1.02;;
13090;SDS011;6611;52.604;13.438;2023-07-13T14:43:31;2.05;;;0.98;;
13090;SDS011;6611;52.604;13.438;2023-07-13T14:48:36;4.20;;;1.40;;
13090;SDS011;6611;52.604;13.438;2023-07-13T14:53:38;3.85;;;1.40;;
13090;SDS011;6611;52.604;13.438;2023-07-13T14:58:40;1.33;;;1.05;;
13090;SDS011;6611;52.604;13.438;2023-07-13T15:03:44;1.42;;;0.90;;
13090;SDS011;6611;52.604;13.438;2023-07-13T15:08:48;2.00;;;0.90;;
13090;SDS011;6611;52.604;13.438;2023-07-13T15:13:50;2.45;;;0.73;;
13090;SDS011;6611;52.604;13.438;2023-07-13T15:18:53;2.50;;;0.80;;
13090;SDS011;6611;52.604;13.438;2023-07-13T15:23:55;1.73;;;1.10;;
13090;SDS011;6611;52.604;13.438;2023-07-13T15:28:56;2.03;;;1.08;;
13090;SDS011;6611;52.604;13.438;2023-07-13T15:33:59;1.85;;;0.80;;
13090;SDS011;6611;52.604;13.438;2023-07-13T15:39:01;1.40;;;0.70;;
13090;SDS011;6611;52.604;13.438;2023-07-13T15:44:05;1.33;;;0.80;;
13090;SDS011;6611;52.604;13.438;2023-07-13T15:49:24;1.67;;;0.90;;
13090;SDS011;6611;52.604;13.438;2023-07-13T15:54:26;4.22;;;0.90;;
13090;SDS011;6611;52.604;13.438;2023-07-13T15:59:28;2.20;;;0.70;;
13090;SDS011;6611;52.604;13.438;2023-07-13T16:04:31;3.13;;;0.90;;
13090;SDS011;6611;52.604;13.438;2023-07-13T16:09:32;2.42;;;0.98;;
13090;SDS011;6611;52.604;13.438;2023-07-13T16:14:34;2.17;;;0.90;;
13090;SDS011;6611;52.604;13.438;2023-07-13T16:19:37;1.65;;;1.15;;
13090;SDS011;6611;52.604;13.438;2023-07-13T16:24:39;1.33;;;0.85;;
13090;SDS011;6611;52.604;13.438;2023-07-13T16:29:41;1.75;;;1.00;;
13090;SDS011;6611;52.604;13.438;2023-07-13T16:34:44;1.70;;;1.15;;
13090;SDS011;6611;52.604;13.438;2023-07-13T16:39:47;1.60;;;1.08;;
13090;SDS011;6611;52.604;13.438;2023-07-13T16:44:53;1.48;;;0.80;;
13090;SDS011;6611;52.604;13.438;2023-07-13T16:49:58;1.27;;;1.00;;
13090;SDS011;6611;52.604;13.438;2023-07-13T16:54:59;2.60;;;1.07;;
13090;SDS011;6611;52.604;13.438;2023-07-13T17:00:01;2.80;;;1.00;;
13090;SDS011;6611;52.604;13.438;2023-07-13T17:05:18;5.43;;;1.13;;
13090;SDS011;6611;52.604;13.438;2023-07-13T17:10:20;6.07;;;1.30;;
13090;SDS011;6611;52.604;13.438;2023-07-13T17:15:24;3.03;;;1.57;;
13090;SDS011;6611;52.604;13.438;2023-07-13T17:20:37;2.50;;;1.43;;
13090;SDS011;6611;52.604;13.438;2023-07-13T17:25:45;3.70;;;1.60;;
13090;SDS011;6611;52.604;13.438;2023-07-13T17:30:49;2.33;;;1.77;;
13090;SDS011;6611;52.604;13.438;2023-07-13T17:35:53;3.17;;;1.50;;
13090;SDS011;6611;52.604;13.438;2023-07-13T17:40:56;2.90;;;2.00;;
13090;SDS011;6611;52.604;13.438;2023-07-13T17:45:58;3.37;;;1.60;;
13090;SDS011;6611;52.604;13.438;2023-07-13T17:51:02;4.37;;;1.80;;
13090;SDS011;6611;52.604;13.438;2023-07-13T17:56:03;2.77;;;1.83;;
13090;SDS011;6611;52.604;13.438;2023-07-13T18:01:08;5.73;;;1.90;;
13090;SDS011;6611;52.604;13.438;2023-07-13T18:06:13;2.60;;;1.90;;
13090;SDS011;6611;52.604;13.438;2023-07-13T18:11:17;2.10;;;1.67;;
13090;SDS011;6611;52.604;13.438;2023-07-13T18:16:21;2.90;;;2.00;;
13090;SDS011;6611;52.604;13.438;2023-07-13T18:21:28;5.00;;;2.63;;
13090;SDS011;6611;52.604;13.438;2023-07-13T18:26:31;4.07;;;2.00;;
13090;SDS011;6611;52.604;13.438;2023-07-13T18:31:33;6.73;;;1.93;;
13090;SDS011;6611;52.604;13.438;2023-07-13T18:36:38;2.10;;;1.90;;
13090;SDS011;6611;52.604;13.438;2023-07-13T18:41:39;3.17;;;2.00;;
13090;SDS011;6611;52.604;13.438;2023-07-13T18:46:41;2.37;;;2.00;;
13090;SDS011;6611;52.604;13.438;2023-07-13T18:51:44;4.50;;;2.20;;
13090;SDS011;6611;52.604;13.438;2023-07-13T18:56:47;2.30;;;2.10;;
13090;SDS011;6611;52.604;13.438;2023-07-13T19:01:49;2.47;;;2.27;;
13090;SDS011;6611;52.604;13.438;2023-07-13T19:06:52;3.37;;;2.53;;
13090;SDS011;6611;52.604;13.438;2023-07-13T19:11:54;3.10;;;2.10;;
13090;SDS011;6611;52.604;13.438;2023-07-13T19:16:56;4.13;;;2.47;;
13090;SDS011;6611;52.604;13.438;2023-07-13T19:21:59;2.93;;;2.27;;
13090;SDS011;6611;52.604;13.438;2023-07-13T19:27:03;6.33;;;2.40;;
13090;SDS011;6611;52.604;13.438;2023-07-13T19:32:05;3.03;;;2.63;;
13090;SDS011;6611;52.604;13.438;2023-07-13T19:37:14;3.30;;;2.53;;
13090;SDS011;6611;52.604;13.438;2023-07-13T19:42:21;4.13;;;2.70;;
13090;SDS011;6611;52.604;13.438;2023-07-13T19:47:24;4.17;;;2.63;;
13090;SDS011;6611;52.604;13.438;2023-07-13T19:52:27;3.33;;;3.00;;
13090;SDS011;6611;52.604;13.438;2023-07-13T19:57:30;2.77;;;2.57;;
13090;SDS011;6611;52.604;13.438;2023-07-13T20:02:32;4.10;;;2.70;;
13090;SDS011;6611;52.604;13.438;2023-07-13T20:07:35;2.73;;;2.43;;
13090;SDS011;6611;52.604;13.438;2023-07-13T20:12:37;4.93;;;3.00;;
13090;SDS011;6611;52.604;13.438;2023-07-13T20:17:39;3.97;;;2.90;;
13090;SDS011;6611;52.604;13.438;2023-07-13T20:22:44;4.47;;;2.70;;
13090;SDS011;6611;52.604;13.438;2023-07-13T20:27:45;4.07;;;2.97;;
13090;SDS011;6611;52.604;13.438;2023-07-13T20:32:47;5.30;;;3.03;;
13090;SDS011;6611;52.604;13.438;2023-07-13T20:37:51;3.83;;;3.10;;
13090;SDS011;6611;52.604;13.438;2023-07-13T20:42:52;3.77;;;3.40;;
13090;SDS011;6611;52.604;13.438;2023-07-13T20:47:57;3.77;;;3.37;;
13090;SDS011;6611;52.604;13.438;2023-07-13T20:53:02;4.60;;;3.67;;
13090;SDS011;6611;52.604;13.438;2023-07-13T20:58:06;4.70;;;3.90;;
13090;SDS011;6611;52.604;13.438;2023-07-13T21:03:13;5.70;;;3.60;;
13090;SDS011;6611;52.604;13.438;2023-07-13T21:08:20;4.07;;;3.23;;
13090;SDS011;6611;52.604;13.438;2023-07-13T21:13:23;3.80;;;3.37;;
13090;SDS011;6611;52.604;13.438;2023-07-13T21:18:25;4.30;;;3.33;;
13090;SDS011;6611;52.604;13.438;2023-07-13T21:23:30;7.23;;;3.67;;
13090;SDS011;6611;52.604;13.438;2023-07-13T21:28:33;4.10;;;3.30;;
13090;SDS011;6611;52.604;13.438;2023-07-13T21:33:36;5.57;;;3.70;;
13090;SDS011;6611;52.604;13.438;2023-07-13T21:38:41;4.90;;;3.60;;
13090;SDS011;6611;52.604;13.438;2023-07-13T21:43:45;3.73;;;3.43;;
13090;SDS011;6611;52.604;13.438;2023-07-13T21:48:47;4.97;;;3.70;;
13090;SDS011;6611;52.604;13.438;2023-07-13T21:53:50;4.07;;;3.67;;
13090;SDS011;6611;52.604;13.438;2023-07-13T21:58:53;4.67;;;4.07;;
13090;SDS011;6611;52.604;13.438;2023-07-13T22:03:54;4.43;;;3.37;;
13090;SDS011;6611;52.604;13.438;2023-07-13T22:08:59;3.60;;;3.00;;
13090;SDS011;6611;52.604;13.438;2023-07-13T22:14:00;4.53;;;3.30;;
13090;SDS011;6611;52.604;13.438;2023-07-13T22:19:06;4.83;;;3.27;;
13090;SDS011;6611;52.604;13.438;2023-07-13T22:24:14;3.97;;;3.60;;
13090;SDS011;6611;52.604;13.438;2023-07-13T22:29:18;3.90;;;3.37;;
13090;SDS011;6611;52.604;13.438;2023-07-13T22:34:21;3.83;;;3.47;;
13090;SDS011;6611;52.604;13.438;2023-07-13T22:39:26;6.10;;;3.70;;
13090;SDS011;6611;52.604;13.438;2023-07-13T22:44:31;3.90;;;3.50;;
13090;SDS011;6611;52.604;13.438;2023-07-13T22:49:34;4.00;;;3.60;;
13090;SDS011;6611;52.604;13.438;2023-07-13T22:54:37;5.20;;;3.57;;
13090;SDS011;6611;52.604;13.438;2023-07-13T22:59:40;4.07;;;3.67;;
13090;SDS011;6611;52.604;13.438;2023-07-13T23:04:42;4.93;;;3.40;;
13090;SDS011;6611;52.604;13.438;2023-07-13T23:09:48;4.53;;;3.57;;
13090;SDS011;6611;52.604;13.438;2023-07-13T23:14:50;3.70;;;3.23;;
13090;SDS011;6611;52.604;13.438;2023-07-13T23:19:51;3.30;;;3.00;;
13090;SDS011;6611;52.604;13.438;2023-07-13T23:24:54;4.83;;;3.03;;
13090;SDS011;6611;52.604;13.438;2023-07-13T23:29:56;3.60;;;3.30;;
13090;SDS011;6611;52.604;13.438;2023-07-13T23:34:58;2.83;;;2.63;;
13090;SDS011;6611;52.604;13.438;2023-07-13T23:40:01;3.67;;;3.20;;
13090;SDS011;6611;52.604;13.438;2023-07-13T23:45:11;3.10;;;2.80;;
13090;SDS011;6611;52.604;13.438;2023-07-13T23:50:15;5.67;;;3.23;;
13090;SDS011;6611;52.604;13.438;2023-07-13T23:55:20;2.97;;;2.67;;
